Hermon, Maine
Current Conditions -  °F | °C
As of 2:53 AM on Friday 24 Oct 2014 (Local Time) from KBGR Reporting Station
Light Rain Light Rain  
Wind Chill: 42°   Ceiling: 800
Heat Index: 47°   Visibility: 7mi
Dew Point: 45°   Wind: 12mph
Humidity: 93%   Direction: 20°NNE
Pressure: 29.71"   Gusts: NA
Location:  44.8521°N, 68.8311°W
Report Text: KBGR 240653Z 02010KT 7SM -RA OVC008 08/07 A2971 RMK AO2 PK WND 36030/0606 SLP062 P0006 T00830072
Loading
Personal Weather Stations






























Interactive Weather Map
Tropical Storm Tracking
New forecast layout! Learn more

10-Day Weather Forecast

Advertisements
Track Severe Weather on mobile